sensor_id;sensor_type;location;lat;lon;timestamp;temperature;humidity
45319;DHT22;31057;48.498;32.260;2023-01-05T00:01:40;1.30;99.90
45319;DHT22;31057;48.498;32.260;2023-01-05T00:03:43;1.30;99.90
45319;DHT22;31057;48.498;32.260;2023-01-05T00:05:45;1.30;99.90
45319;DHT22;31057;48.498;32.260;2023-01-05T00:07:47;1.30;99.90
45319;DHT22;31057;48.498;32.260;2023-01-05T00:09:49;1.30;99.90
45319;DHT22;31057;48.498;32.260;2023-01-05T00:11:51;1.40;99.90
45319;DHT22;31057;48.498;32.260;2023-01-05T00:14:17;1.30;99.90
45319;DHT22;31057;48.498;32.260;2023-01-05T00:16:38;1.40;99.90
45319;DHT22;31057;48.498;32.260;2023-01-05T00:18:59;1.40;99.90
45319;DHT22;31057;48.498;32.260;2023-01-05T00:21:20;1.30;99.90
45319;DHT22;31057;48.498;32.260;2023-01-05T00:23:40;1.20;99.90
45319;DHT22;31057;48.498;32.260;2023-01-05T00:25:43;1.20;99.90
45319;DHT22;31057;48.498;32.260;2023-01-05T00:27:45;1.30;99.90
45319;DHT22;31057;48.498;32.260;2023-01-05T00:29:48;1.30;99.90
45319;DHT22;31057;48.498;32.260;2023-01-05T00:31:50;1.20;99.90
45319;DHT22;31057;48.498;32.260;2023-01-05T00:33:52;1.30;99.90
45319;DHT22;31057;48.498;32.260;2023-01-05T00:35:54;1.30;99.90
45319;DHT22;31057;48.498;32.260;2023-01-05T00:37:56;1.30;99.90
45319;DHT22;31057;48.498;32.260;2023-01-05T00:39:58;1.20;99.90
45319;DHT22;31057;48.498;32.260;2023-01-05T00:42:00;1.20;99.90
45319;DHT22;31057;48.498;32.260;2023-01-05T00:44:02;1.20;99.90
45319;DHT22;31057;48.498;32.260;2023-01-05T00:46:04;1.20;99.90
45319;DHT22;31057;48.498;32.260;2023-01-05T00:48:06;1.20;99.90
45319;DHT22;31057;48.498;32.260;2023-01-05T00:50:10;1.20;99.90
45319;DHT22;31057;48.498;32.260;2023-01-05T00:52:13;1.40;99.90
45319;DHT22;31057;48.498;32.260;2023-01-05T00:54:15;1.30;99.90
45319;DHT22;31057;48.498;32.260;2023-01-05T00:56:17;1.50;99.90
45319;DHT22;31057;48.498;32.260;2023-01-05T00:58:19;1.30;99.90
45319;DHT22;31057;48.498;32.260;2023-01-05T01:00:21;1.40;99.90
45319;DHT22;31057;48.498;32.260;2023-01-05T01:02:23;1.30;99.90
45319;DHT22;31057;48.498;32.260;2023-01-05T01:04:25;1.30;99.90
45319;DHT22;31057;48.498;32.260;2023-01-05T01:06:27;1.30;99.90
45319;DHT22;31057;48.498;32.260;2023-01-05T01:08:29;1.30;99.90
45319;DHT22;31057;48.498;32.260;2023-01-05T01:10:31;1.30;99.90
45319;DHT22;31057;48.498;32.260;2023-01-05T01:12:33;1.40;99.90
45319;DHT22;31057;48.498;32.260;2023-01-05T01:14:36;1.50;99.90
45319;DHT22;31057;48.498;32.260;2023-01-05T01:16:41;1.40;99.90
45319;DHT22;31057;48.498;32.260;2023-01-05T01:18:44;1.30;99.90
45319;DHT22;31057;48.498;32.260;2023-01-05T01:20:46;1.30;99.90
45319;DHT22;31057;48.498;32.260;2023-01-05T01:22:48;1.30;99.90
45319;DHT22;31057;48.498;32.260;2023-01-05T01:24:51;1.40;99.90
45319;DHT22;31057;48.498;32.260;2023-01-05T01:26:54;1.30;99.90
45319;DHT22;31057;48.498;32.260;2023-01-05T01:28:56;1.30;99.90
45319;DHT22;31057;48.498;32.260;2023-01-05T01:30:58;1.20;99.90
45319;DHT22;31057;48.498;32.260;2023-01-05T01:33:00;1.30;99.90
45319;DHT22;31057;48.498;32.260;2023-01-05T01:35:03;1.50;99.90
45319;DHT22;31057;48.498;32.260;2023-01-05T01:37:05;1.40;99.90
45319;DHT22;31057;48.498;32.260;2023-01-05T01:39:07;1.30;99.90
45319;DHT22;31057;48.498;32.260;2023-01-05T01:41:10;1.30;99.90
45319;DHT22;31057;48.498;32.260;2023-01-05T01:43:40;1.30;99.90
45319;DHT22;31057;48.498;32.260;2023-01-05T01:45:43;1.30;99.90
45319;DHT22;31057;48.498;32.260;2023-01-05T01:47:49;1.40;99.90
45319;DHT22;31057;48.498;32.260;2023-01-05T01:49:53;1.60;99.90
45319;DHT22;31057;48.498;32.260;2023-01-05T01:51:56;1.50;99.90
45319;DHT22;31057;48.498;32.260;2023-01-05T01:53:59;1.50;99.90
45319;DHT22;31057;48.498;32.260;2023-01-05T01:56:04;1.40;99.90
45319;DHT22;31057;48.498;32.260;2023-01-05T01:58:10;1.30;99.90
45319;DHT22;31057;48.498;32.260;2023-01-05T02:00:17;1.30;99.90
45319;DHT22;31057;48.498;32.260;2023-01-05T02:02:20;1.40;99.90
45319;DHT22;31057;48.498;32.260;2023-01-05T02:04:24;1.30;99.90
45319;DHT22;31057;48.498;32.260;2023-01-05T02:06:26;1.40;99.90
45319;DHT22;31057;48.498;32.260;2023-01-05T02:08:28;1.40;99.90
45319;DHT22;31057;48.498;32.260;2023-01-05T02:15:23;1.40;99.90
45319;DHT22;31057;48.498;32.260;2023-01-05T02:17:44;1.40;99.90
45319;DHT22;31057;48.498;32.260;2023-01-05T02:28:58;1.50;99.90
45319;DHT22;31057;48.498;32.260;2023-01-05T02:36:27;1.40;99.90
45319;DHT22;31057;48.498;32.260;2023-01-05T02:40:22;1.30;99.90
45319;DHT22;31057;48.498;32.260;2023-01-05T02:42:27;1.20;99.90
45319;DHT22;31057;48.498;32.260;2023-01-05T02:44:32;1.20;99.90
45319;DHT22;31057;48.498;32.260;2023-01-05T02:46:34;1.20;99.90
45319;DHT22;31057;48.498;32.260;2023-01-05T02:48:36;1.50;99.90
45319;DHT22;31057;48.498;32.260;2023-01-05T02:50:47;1.50;99.90
45319;DHT22;31057;48.498;32.260;2023-01-05T02:53:39;1.40;99.90
45319;DHT22;31057;48.498;32.260;2023-01-05T02:55:25;1.30;99.90
45319;DHT22;31057;48.498;32.260;2023-01-05T02:57:52;1.20;99.90
45319;DHT22;31057;48.498;32.260;2023-01-05T02:59:57;1.20;99.90
45319;DHT22;31057;48.498;32.260;2023-01-05T03:02:00;1.20;99.90
45319;DHT22;31057;48.498;32.260;2023-01-05T03:04:08;1.30;99.90
45319;DHT22;31057;48.498;32.260;2023-01-05T03:06:22;1.40;99.90
45319;DHT22;31057;48.498;32.260;2023-01-05T03:08:28;1.50;99.90
45319;DHT22;31057;48.498;32.260;2023-01-05T03:10:59;1.60;99.90
45319;DHT22;31057;48.498;32.260;2023-01-05T03:13:21;1.50;99.90
45319;DHT22;31057;48.498;32.260;2023-01-05T03:15:42;1.50;99.90
45319;DHT22;31057;48.498;32.260;2023-01-05T03:17:48;1.30;99.90
45319;DHT22;31057;48.498;32.260;2023-01-05T03:19:52;1.40;99.90
45319;DHT22;31057;48.498;32.260;2023-01-05T03:21:57;1.30;99.90
45319;DHT22;31057;48.498;32.260;2023-01-05T03:24:19;1.30;99.90
45319;DHT22;31057;48.498;32.260;2023-01-05T03:26:39;1.20;99.90
45319;DHT22;31057;48.498;32.260;2023-01-05T03:29:01;1.20;99.90
45319;DHT22;31057;48.498;32.260;2023-01-05T03:31:27;1.50;99.90
45319;DHT22;31057;48.498;32.260;2023-01-05T03:34:15;1.70;99.90
45319;DHT22;31057;48.498;32.260;2023-01-05T03:36:43;1.50;99.90
45319;DHT22;31057;48.498;32.260;2023-01-05T03:38:47;1.40;99.90
45319;DHT22;31057;48.498;32.260;2023-01-05T03:40:53;1.40;99.90
45319;DHT22;31057;48.498;32.260;2023-01-05T03:42:57;1.40;99.90
45319;DHT22;31057;48.498;32.260;2023-01-05T03:44:58;1.40;99.90
45319;DHT22;31057;48.498;32.260;2023-01-05T03:47:00;1.40;99.90
45319;DHT22;31057;48.498;32.260;2023-01-05T03:49:02;1.40;99.90
45319;DHT22;31057;48.498;32.260;2023-01-05T03:51:04;1.60;99.90
45319;DHT22;31057;48.498;32.260;2023-01-05T03:53:06;1.70;99.90
45319;DHT22;31057;48.498;32.260;2023-01-05T03:55:09;1.80;99.90
45319;DHT22;31057;48.498;32.260;2023-01-05T03:57:11;1.60;99.90
45319;DHT22;31057;48.498;32.260;2023-01-05T03:59:13;1.60;99.90
45319;DHT22;31057;48.498;32.260;2023-01-05T04:01:15;1.60;99.90
45319;DHT22;31057;48.498;32.260;2023-01-05T04:03:17;1.60;99.90
45319;DHT22;31057;48.498;32.260;2023-01-05T04:05:19;1.60;99.90
45319;DHT22;31057;48.498;32.260;2023-01-05T04:07:21;1.60;99.90
45319;DHT22;31057;48.498;32.260;2023-01-05T04:09:22;1.60;99.90
45319;DHT22;31057;48.498;32.260;2023-01-05T04:11:25;1.90;99.90
45319;DHT22;31057;48.498;32.260;2023-01-05T04:13:26;1.80;99.90
45319;DHT22;31057;48.498;32.260;2023-01-05T04:15:28;1.90;99.90
45319;DHT22;31057;48.498;32.260;2023-01-05T04:17:30;1.80;99.90
45319;DHT22;31057;48.498;32.260;2023-01-05T04:19:32;1.80;99.90
45319;DHT22;31057;48.498;32.260;2023-01-05T04:21:34;1.80;99.90
45319;DHT22;31057;48.498;32.260;2023-01-05T04:23:36;1.80;99.90
45319;DHT22;31057;48.498;32.260;2023-01-05T04:25:38;1.80;99.90
45319;DHT22;31057;48.498;32.260;2023-01-05T04:27:40;1.80;99.90
45319;DHT22;31057;48.498;32.260;2023-01-05T04:29:41;1.90;99.90
45319;DHT22;31057;48.498;32.260;2023-01-05T04:31:43;2.20;99.90
45319;DHT22;31057;48.498;32.260;2023-01-05T04:33:45;2.20;99.90
45319;DHT22;31057;48.498;32.260;2023-01-05T04:35:47;2.30;99.90
45319;DHT22;31057;48.498;32.260;2023-01-05T04:37:49;2.10;99.90
45319;DHT22;31057;48.498;32.260;2023-01-05T04:39:51;2.00;99.90
45319;DHT22;31057;48.498;32.260;2023-01-05T04:41:53;2.00;99.90
45319;DHT22;31057;48.498;32.260;2023-01-05T04:43:55;2.00;99.90
45319;DHT22;31057;48.498;32.260;2023-01-05T04:45:59;2.00;99.90
45319;DHT22;31057;48.498;32.260;2023-01-05T04:48:01;2.00;99.90
45319;DHT22;31057;48.498;32.260;2023-01-05T04:50:03;1.90;99.90
45319;DHT22;31057;48.498;32.260;2023-01-05T04:52:07;2.10;99.90
45319;DHT22;31057;48.498;32.260;2023-01-05T04:54:10;2.20;99.90
45319;DHT22;31057;48.498;32.260;2023-01-05T04:56:12;2.10;99.90
45319;DHT22;31057;48.498;32.260;2023-01-05T04:58:14;2.00;99.90
45319;DHT22;31057;48.498;32.260;2023-01-05T05:00:16;2.00;99.90
45319;DHT22;31057;48.498;32.260;2023-01-05T05:02:18;2.00;99.90
45319;DHT22;31057;48.498;32.260;2023-01-05T05:04:20;1.90;99.90
45319;DHT22;31057;48.498;32.260;2023-01-05T05:06:22;1.90;99.90
45319;DHT22;31057;48.498;32.260;2023-01-05T05:08:24;2.00;99.90
45319;DHT22;31057;48.498;32.260;2023-01-05T05:10:27;2.00;99.90
45319;DHT22;31057;48.498;32.260;2023-01-05T05:12:29;2.10;99.90
45319;DHT22;31057;48.498;32.260;2023-01-05T05:14:31;2.20;99.90
45319;DHT22;31057;48.498;32.260;2023-01-05T05:16:33;2.20;99.90
45319;DHT22;31057;48.498;32.260;2023-01-05T05:18:35;2.10;99.90
45319;DHT22;31057;48.498;32.260;2023-01-05T05:20:39;2.10;99.90
45319;DHT22;31057;48.498;32.260;2023-01-05T05:22:43;2.10;99.90
45319;DHT22;31057;48.498;32.260;2023-01-05T05:24:45;2.10;99.90
45319;DHT22;31057;48.498;32.260;2023-01-05T05:26:46;2.20;99.90
45319;DHT22;31057;48.498;32.260;2023-01-05T05:28:48;2.10;99.90
45319;DHT22;31057;48.498;32.260;2023-01-05T05:30:50;2.20;99.90
45319;DHT22;31057;48.498;32.260;2023-01-05T05:32:52;2.30;99.90
45319;DHT22;31057;48.498;32.260;2023-01-05T05:34:54;2.30;99.90
45319;DHT22;31057;48.498;32.260;2023-01-05T05:36:56;2.30;99.90
45319;DHT22;31057;48.498;32.260;2023-01-05T05:38:58;2.30;99.90
45319;DHT22;31057;48.498;32.260;2023-01-05T05:41:00;2.20;99.90
45319;DHT22;31057;48.498;32.260;2023-01-05T05:43:02;2.20;99.90
45319;DHT22;31057;48.498;32.260;2023-01-05T05:45:04;2.20;99.90
45319;DHT22;31057;48.498;32.260;2023-01-05T05:47:06;2.20;99.90
45319;DHT22;31057;48.498;32.260;2023-01-05T05:49:08;2.20;99.90
45319;DHT22;31057;48.498;32.260;2023-01-05T05:51:10;2.20;99.90
45319;DHT22;31057;48.498;32.260;2023-01-05T05:53:12;2.30;99.90
45319;DHT22;31057;48.498;32.260;2023-01-05T05:55:14;2.50;99.90
45319;DHT22;31057;48.498;32.260;2023-01-05T05:57:16;2.40;99.90
45319;DHT22;31057;48.498;32.260;2023-01-05T05:59:18;2.30;99.90
45319;DHT22;31057;48.498;32.260;2023-01-05T06:01:20;2.30;99.90
45319;DHT22;31057;48.498;32.260;2023-01-05T08:14:30;3.20;99.90
45319;DHT22;31057;48.498;32.260;2023-01-05T08:16:32;3.50;99.90
45319;DHT22;31057;48.498;32.260;2023-01-05T08:18:34;3.40;99.90
45319;DHT22;31057;48.498;32.260;2023-01-05T08:20:36;3.40;99.90
45319;DHT22;31057;48.498;32.260;2023-01-05T08:22:38;3.40;99.90
45319;DHT22;31057;48.498;32.260;2023-01-05T08:24:40;3.30;99.90
45319;DHT22;31057;48.498;32.260;2023-01-05T08:26:42;3.40;99.90
45319;DHT22;31057;48.498;32.260;2023-01-05T08:28:44;3.30;99.90
45319;DHT22;31057;48.498;32.260;2023-01-05T08:30:46;3.40;99.90
45319;DHT22;31057;48.498;32.260;2023-01-05T08:32:48;3.30;99.90
45319;DHT22;31057;48.498;32.260;2023-01-05T08:34:50;3.30;99.90
45319;DHT22;31057;48.498;32.260;2023-01-05T08:36:56;3.30;99.90
45319;DHT22;31057;48.498;32.260;2023-01-05T08:38:58;3.50;99.90
45319;DHT22;31057;48.498;32.260;2023-01-05T08:41:02;3.40;99.90
45319;DHT22;31057;48.498;32.260;2023-01-05T08:43:05;3.30;99.90
45319;DHT22;31057;48.498;32.260;2023-01-05T08:45:07;3.40;99.90
45319;DHT22;31057;48.498;32.260;2023-01-05T08:47:09;3.50;99.90
45319;DHT22;31057;48.498;32.260;2023-01-05T08:49:11;3.50;99.90
45319;DHT22;31057;48.498;32.260;2023-01-05T08:51:13;3.50;99.90
45319;DHT22;31057;48.498;32.260;2023-01-05T08:53:14;3.40;99.90
45319;DHT22;31057;48.498;32.260;2023-01-05T08:55:16;3.40;99.90
45319;DHT22;31057;48.498;32.260;2023-01-05T08:57:18;3.40;99.90
45319;DHT22;31057;48.498;32.260;2023-01-05T08:59:20;3.40;99.90
45319;DHT22;31057;48.498;32.260;2023-01-05T09:01:22;3.40;99.90
45319;DHT22;31057;48.498;32.260;2023-01-05T09:03:24;3.60;99.90
45319;DHT22;31057;48.498;32.260;2023-01-05T09:05:26;3.70;99.90
45319;DHT22;31057;48.498;32.260;2023-01-05T09:07:28;3.70;99.90
45319;DHT22;31057;48.498;32.260;2023-01-05T09:09:30;3.60;99.90
45319;DHT22;31057;48.498;32.260;2023-01-05T09:11:32;3.60;99.90
45319;DHT22;31057;48.498;32.260;2023-01-05T09:13:37;3.50;99.90
45319;DHT22;31057;48.498;32.260;2023-01-05T09:15:40;3.50;99.90
45319;DHT22;31057;48.498;32.260;2023-01-05T09:17:41;3.50;99.90
45319;DHT22;31057;48.498;32.260;2023-01-05T09:19:43;3.50;99.90
45319;DHT22;31057;48.498;32.260;2023-01-05T09:21:46;3.60;99.90
45319;DHT22;31057;48.498;32.260;2023-01-05T09:23:48;3.70;99.90
45319;DHT22;31057;48.498;32.260;2023-01-05T09:25:50;3.70;99.90
45319;DHT22;31057;48.498;32.260;2023-01-05T09:27:51;3.60;99.90
45319;DHT22;31057;48.498;32.260;2023-01-05T09:29:53;3.60;99.90
45319;DHT22;31057;48.498;32.260;2023-01-05T09:31:55;3.50;99.90
45319;DHT22;31057;48.498;32.260;2023-01-05T09:33:58;3.50;99.90
45319;DHT22;31057;48.498;32.260;2023-01-05T09:36:00;3.40;99.90
45319;DHT22;31057;48.498;32.260;2023-01-05T09:38:02;3.50;99.90
45319;DHT22;31057;48.498;32.260;2023-01-05T09:40:04;3.50;99.90
45319;DHT22;31057;48.498;32.260;2023-01-05T09:42:12;3.50;99.90
45319;DHT22;31057;48.498;32.260;2023-01-05T09:44:34;3.50;99.90
45319;DHT22;31057;48.498;32.260;2023-01-05T09:46:41;3.40;99.90
45319;DHT22;31057;48.498;32.260;2023-01-05T09:48:49;3.30;99.90
45319;DHT22;31057;48.498;32.260;2023-01-05T09:50:53;3.30;99.90
45319;DHT22;31057;48.498;32.260;2023-01-05T09:52:55;3.40;99.90
45319;DHT22;31057;48.498;32.260;2023-01-05T09:55:03;3.40;99.90
45319;DHT22;31057;48.498;32.260;2023-01-05T09:57:20;3.40;99.90
45319;DHT22;31057;48.498;32.260;2023-01-05T10:01:26;3.50;99.90
45319;DHT22;31057;48.498;32.260;2023-01-05T10:03:28;3.60;99.90
45319;DHT22;31057;48.498;32.260;2023-01-05T10:05:52;3.50;99.90
45319;DHT22;31057;48.498;32.260;2023-01-05T10:08:06;3.40;99.90
45319;DHT22;31057;48.498;32.260;2023-01-05T10:10:19;3.30;99.90
45319;DHT22;31057;48.498;32.260;2023-01-05T10:12:35;3.40;99.90
45319;DHT22;31057;48.498;32.260;2023-01-05T10:15:09;3.40;99.90
45319;DHT22;31057;48.498;32.260;2023-01-05T10:17:16;3.40;99.90
45319;DHT22;31057;48.498;32.260;2023-01-05T10:19:39;3.40;99.90
45319;DHT22;31057;48.498;32.260;2023-01-05T10:29:10;3.30;99.90
45319;DHT22;31057;48.498;32.260;2023-01-05T10:31:23;3.40;99.90
45319;DHT22;31057;48.498;32.260;2023-01-05T10:41:33;3.50;99.90
45319;DHT22;31057;48.498;32.260;2023-01-05T10:45:40;3.50;99.90
45319;DHT22;31057;48.498;32.260;2023-01-05T10:48:02;3.50;99.90
45319;DHT22;31057;48.498;32.260;2023-01-05T10:50:34;3.40;99.90
45319;DHT22;31057;48.498;32.260;2023-01-05T10:52:37;3.50;99.90
45319;DHT22;31057;48.498;32.260;2023-01-05T10:54:43;3.60;99.90
45319;DHT22;31057;48.498;32.260;2023-01-05T10:56:45;3.50;99.90
45319;DHT22;31057;48.498;32.260;2023-01-05T10:58:48;3.60;99.90
45319;DHT22;31057;48.498;32.260;2023-01-05T11:00:49;3.80;99.90
45319;DHT22;31057;48.498;32.260;2023-01-05T11:03:00;3.80;99.90
45319;DHT22;31057;48.498;32.260;2023-01-05T11:05:23;3.70;99.90
45319;DHT22;31057;48.498;32.260;2023-01-05T11:07:26;3.60;99.90
45319;DHT22;31057;48.498;32.260;2023-01-05T11:09:28;3.70;99.90
45319;DHT22;31057;48.498;32.260;2023-01-05T11:11:31;3.70;99.90
45319;DHT22;31057;48.498;32.260;2023-01-05T11:13:40;3.60;99.90
45319;DHT22;31057;48.498;32.260;2023-01-05T11:15:48;3.60;99.90
45319;DHT22;31057;48.498;32.260;2023-01-05T11:17:53;3.70;99.90
45319;DHT22;31057;48.498;32.260;2023-01-05T11:19:56;3.80;99.90
45319;DHT22;31057;48.498;32.260;2023-01-05T11:21:58;3.80;99.90
45319;DHT22;31057;48.498;32.260;2023-01-05T11:24:07;3.90;99.90
45319;DHT22;31057;48.498;32.260;2023-01-05T11:26:33;3.70;99.90
45319;DHT22;31057;48.498;32.260;2023-01-05T11:28:35;3.80;99.90
45319;DHT22;31057;48.498;32.260;2023-01-05T11:30:57;3.80;99.90
45319;DHT22;31057;48.498;32.260;2023-01-05T11:33:00;3.80;99.90
45319;DHT22;31057;48.498;32.260;2023-01-05T11:35:02;3.80;99.90
45319;DHT22;31057;48.498;32.260;2023-01-05T11:41:46;4.00;99.90
45319;DHT22;31057;48.498;32.260;2023-01-05T11:43:49;4.10;99.90
45319;DHT22;31057;48.498;32.260;2023-01-05T11:45:58;4.00;99.90
45319;DHT22;31057;48.498;32.260;2023-01-05T11:48:02;4.00;99.90
45319;DHT22;31057;48.498;32.260;2023-01-05T11:52:32;4.00;99.90
45319;DHT22;31057;48.498;32.260;2023-01-05T11:54:36;4.00;99.90
45319;DHT22;31057;48.498;32.260;2023-01-05T11:56:38;4.00;99.90
45319;DHT22;31057;48.498;32.260;2023-01-05T11:58:42;4.00;99.90
45319;DHT22;31057;48.498;32.260;2023-01-05T16:11:46;4.50;99.90
45319;DHT22;31057;48.498;32.260;2023-01-05T16:14:07;4.40;99.90
45319;DHT22;31057;48.498;32.260;2023-01-05T16:16:40;4.40;99.90
45319;DHT22;31057;48.498;32.260;2023-01-05T16:19:03;4.50;99.90
45319;DHT22;31057;48.498;32.260;2023-01-05T16:22:11;4.50;99.90
45319;DHT22;31057;48.498;32.260;2023-01-05T16:27:23;4.50;99.90
45319;DHT22;31057;48.498;32.260;2023-01-05T16:32:34;4.50;99.90
45319;DHT22;31057;48.498;32.260;2023-01-05T16:37:23;4.50;99.90
45319;DHT22;31057;48.498;32.260;2023-01-05T16:39:37;4.50;99.90
45319;DHT22;31057;48.498;32.260;2023-01-05T16:42:04;4.50;99.90
45319;DHT22;31057;48.498;32.260;2023-01-05T16:44:40;4.60;99.90
45319;DHT22;31057;48.498;32.260;2023-01-05T16:47:05;4.50;99.90
45319;DHT22;31057;48.498;32.260;2023-01-05T16:49:51;4.40;99.90
45319;DHT22;31057;48.498;32.260;2023-01-05T16:52:01;4.60;99.90
45319;DHT22;31057;48.498;32.260;2023-01-05T16:54:18;4.60;99.90
45319;DHT22;31057;48.498;32.260;2023-01-05T16:56:48;4.60;99.90
45319;DHT22;31057;48.498;32.260;2023-01-05T17:02:02;4.70;99.90
45319;DHT22;31057;48.498;32.260;2023-01-05T17:04:14;4.80;99.90
45319;DHT22;31057;48.498;32.260;2023-01-05T17:06:24;4.60;99.90
45319;DHT22;31057;48.498;32.260;2023-01-05T17:09:28;4.60;99.90
45319;DHT22;31057;48.498;32.260;2023-01-05T17:11:44;4.60;99.90
45319;DHT22;31057;48.498;32.260;2023-01-05T17:14:08;4.80;99.90
45319;DHT22;31057;48.498;32.260;2023-01-05T17:16:19;4.80;99.90
45319;DHT22;31057;48.498;32.260;2023-01-05T17:18:39;4.70;99.90
45319;DHT22;31057;48.498;32.260;2023-01-05T17:20:48;4.80;99.90
45319;DHT22;31057;48.498;32.260;2023-01-05T17:22:55;4.80;99.90
45319;DHT22;31057;48.498;32.260;2023-01-05T17:24:58;4.80;99.90
45319;DHT22;31057;48.498;32.260;2023-01-05T17:27:02;4.80;99.90
45319;DHT22;31057;48.498;32.260;2023-01-05T17:29:05;4.90;99.90
45319;DHT22;31057;48.498;32.260;2023-01-05T17:31:12;4.80;99.90
45319;DHT22;31057;48.498;32.260;2023-01-05T17:33:14;4.80;99.90
45319;DHT22;31057;48.498;32.260;2023-01-05T17:35:18;4.90;99.90
45319;DHT22;31057;48.498;32.260;2023-01-05T17:37:20;4.90;99.90
45319;DHT22;31057;48.498;32.260;2023-01-05T17:39:29;5.00;99.90
45319;DHT22;31057;48.498;32.260;2023-01-05T17:41:32;5.10;99.90
45319;DHT22;31057;48.498;32.260;2023-01-05T17:43:38;5.20;99.90
45319;DHT22;31057;48.498;32.260;2023-01-05T17:45:44;5.10;99.90
45319;DHT22;31057;48.498;32.260;2023-01-05T17:47:48;5.20;99.90
45319;DHT22;31057;48.498;32.260;2023-01-05T17:49:51;5.20;99.90
45319;DHT22;31057;48.498;32.260;2023-01-05T17:52:01;5.30;99.90
45319;DHT22;31057;48.498;32.260;2023-01-05T17:54:04;5.30;99.90
45319;DHT22;31057;48.498;32.260;2023-01-05T17:56:07;5.40;99.90
45319;DHT22;31057;48.498;32.260;2023-01-05T17:58:15;5.40;99.90
45319;DHT22;31057;48.498;32.260;2023-01-05T18:00:19;5.50;99.90
45319;DHT22;31057;48.498;32.260;2023-01-05T21:49:20;6.20;99.90
45319;DHT22;31057;48.498;32.260;2023-01-05T21:51:21;6.20;99.90
45319;DHT22;31057;48.498;32.260;2023-01-05T21:53:42;6.30;99.90
45319;DHT22;31057;48.498;32.260;2023-01-05T21:56:12;6.30;99.90
45319;DHT22;31057;48.498;32.260;2023-01-05T21:58:26;6.20;99.90
45319;DHT22;31057;48.498;32.260;2023-01-05T22:00:28;6.20;99.90
45319;DHT22;31057;48.498;32.260;2023-01-05T22:02:30;6.20;99.90
45319;DHT22;31057;48.498;32.260;2023-01-05T22:04:32;6.10;99.90
45319;DHT22;31057;48.498;32.260;2023-01-05T22:06:34;6.10;99.90
45319;DHT22;31057;48.498;32.260;2023-01-05T22:08:36;6.10;99.90
45319;DHT22;31057;48.498;32.260;2023-01-05T22:10:38;6.10;99.90
45319;DHT22;31057;48.498;32.260;2023-01-05T22:12:40;6.20;99.90
45319;DHT22;31057;48.498;32.260;2023-01-05T22:14:42;6.20;99.90
45319;DHT22;31057;48.498;32.260;2023-01-05T22:16:45;6.20;99.90
45319;DHT22;31057;48.498;32.260;2023-01-05T22:18:47;6.20;99.90
45319;DHT22;31057;48.498;32.260;2023-01-05T22:20:57;6.20;99.90
45319;DHT22;31057;48.498;32.260;2023-01-05T22:22:59;6.30;99.90
45319;DHT22;31057;48.498;32.260;2023-01-05T22:25:01;6.30;99.90
45319;DHT22;31057;48.498;32.260;2023-01-05T22:27:03;6.30;99.90
45319;DHT22;31057;48.498;32.260;2023-01-05T22:29:05;6.30;99.90
45319;DHT22;31057;48.498;32.260;2023-01-05T22:31:16;6.30;99.90
45319;DHT22;31057;48.498;32.260;2023-01-05T22:33:18;6.30;99.90
45319;DHT22;31057;48.498;32.260;2023-01-05T22:35:20;6.30;99.90
45319;DHT22;31057;48.498;32.260;2023-01-05T22:37:22;6.30;99.90
45319;DHT22;31057;48.498;32.260;2023-01-05T22:39:24;6.30;99.90
45319;DHT22;31057;48.498;32.260;2023-01-05T22:41:27;6.30;99.90
45319;DHT22;31057;48.498;32.260;2023-01-05T22:43:30;6.30;99.90
45319;DHT22;31057;48.498;32.260;2023-01-05T22:45:32;6.40;99.90
45319;DHT22;31057;48.498;32.260;2023-01-05T22:47:34;6.40;99.90
45319;DHT22;31057;48.498;32.260;2023-01-05T22:49:36;6.30;99.90
45319;DHT22;31057;48.498;32.260;2023-01-05T22:51:38;6.40;99.90
45319;DHT22;31057;48.498;32.260;2023-01-05T22:53:42;6.40;99.90
45319;DHT22;31057;48.498;32.260;2023-01-05T22:55:44;6.40;99.90
45319;DHT22;31057;48.498;32.260;2023-01-05T22:57:46;6.40;99.90
45319;DHT22;31057;48.498;32.260;2023-01-05T22:59:48;6.30;99.90
45319;DHT22;31057;48.498;32.260;2023-01-05T23:01:50;6.40;99.90
45319;DHT22;31057;48.498;32.260;2023-01-05T23:03:53;6.40;99.90
45319;DHT22;31057;48.498;32.260;2023-01-05T23:05:55;6.40;99.90
45319;DHT22;31057;48.498;32.260;2023-01-05T23:07:57;6.50;99.90
45319;DHT22;31057;48.498;32.260;2023-01-05T23:09:59;6.40;99.90
45319;DHT22;31057;48.498;32.260;2023-01-05T23:12:01;6.40;99.90
45319;DHT22;31057;48.498;32.260;2023-01-05T23:14:03;6.40;99.90
45319;DHT22;31057;48.498;32.260;2023-01-05T23:16:06;6.50;99.90
45319;DHT22;31057;48.498;32.260;2023-01-05T23:18:09;6.40;99.90
45319;DHT22;31057;48.498;32.260;2023-01-05T23:20:11;6.40;99.90
45319;DHT22;31057;48.498;32.260;2023-01-05T23:22:13;6.40;99.90
45319;DHT22;31057;48.498;32.260;2023-01-05T23:24:15;6.40;99.90
45319;DHT22;31057;48.498;32.260;2023-01-05T23:26:18;6.40;99.90
45319;DHT22;31057;48.498;32.260;2023-01-05T23:28:21;6.40;99.90
45319;DHT22;31057;48.498;32.260;2023-01-05T23:30:24;6.40;99.90
45319;DHT22;31057;48.498;32.260;2023-01-05T23:32:26;6.40;99.90
45319;DHT22;31057;48.498;32.260;2023-01-05T23:34:28;6.40;99.90
45319;DHT22;31057;48.498;32.260;2023-01-05T23:36:30;6.40;99.90
45319;DHT22;31057;48.498;32.260;2023-01-05T23:38:32;6.30;99.90
45319;DHT22;31057;48.498;32.260;2023-01-05T23:40:39;6.40;99.90
45319;DHT22;31057;48.498;32.260;2023-01-05T23:42:41;6.30;99.90
45319;DHT22;31057;48.498;32.260;2023-01-05T23:44:47;6.40;99.90
45319;DHT22;31057;48.498;32.260;2023-01-05T23:46:49;6.40;99.90
45319;DHT22;31057;48.498;32.260;2023-01-05T23:48:51;6.40;99.90
45319;DHT22;31057;48.498;32.260;2023-01-05T23:50:53;6.40;99.90
45319;DHT22;31057;48.498;32.260;2023-01-05T23:52:57;6.30;99.90
45319;DHT22;31057;48.498;32.260;2023-01-05T23:55:00;6.30;99.90
45319;DHT22;31057;48.498;32.260;2023-01-05T23:57:03;6.30;99.90
45319;DHT22;31057;48.498;32.260;2023-01-05T23:59:06;6.30;99.90
